Time;durP1;ratioP1;P1;durP2;ratioP2;P2;SDS_P1;SDS_P2;PMS_P1;PMS_P2;Temp;Humidity;BMP_temperature;BMP_pressure;BME280_temperature;BME280_humidity;BME280_pressure;Samples;Min_cycle;Max_cycle;Signal;HPM_P1;HPM_P2
2023/04/24 00:02:09;;;;;;;35.78;6.45;;;;;;;9.18;100.00;99958.41;5058286;28;20035;-45
2023/04/24 00:04:34;;;;;;;31.45;6.30;;;;;;;9.19;100.00;99959.28;5057785;28;20068;-45
2023/04/24 00:07:00;;;;;;;36.45;6.82;;;;;;;9.19;100.00;99957.41;5064370;28;20516;-45
2023/04/24 00:09:26;;;;;;;24.25;6.50;;;;;;;9.15;100.00;99961.50;5059739;28;20031;-46
2023/04/24 00:11:51;;;;;;;18.02;5.85;;;;;;;9.17;100.00;99964.81;5070519;28;20501;-47
2023/04/24 00:14:16;;;;;;;21.40;6.40;;;;;;;9.17;100.00;99962.16;5050153;28;20398;-45
2023/04/24 00:16:42;;;;;;;25.20;6.13;;;;;;;9.14;100.00;99961.72;5056336;28;20433;-45
2023/04/24 00:19:07;;;;;;;21.80;6.65;;;;;;;9.15;100.00;99960.69;5060180;28;20028;-44
2023/04/24 00:21:33;;;;;;;26.08;7.40;;;;;;;9.16;100.00;99965.00;5071379;28;20139;-42
2023/04/24 00:23:59;;;;;;;20.83;5.93;;;;;;;9.09;100.00;99964.16;5072305;28;20052;-45
2023/04/24 00:26:24;;;;;;;28.38;6.57;;;;;;;9.14;100.00;99967.09;5070429;28;20097;-44
2023/04/24 00:28:49;;;;;;;32.33;7.20;;;;;;;9.12;100.00;99966.44;5071513;28;20490;-43
2023/04/24 00:31:15;;;;;;;20.20;7.90;;;;;;;9.15;100.00;99968.72;5069734;28;20031;-47
2023/04/24 00:33:41;;;;;;;25.23;7.38;;;;;;;9.18;100.00;99963.78;5069464;28;20563;-43
2023/04/24 00:36:06;;;;;;;24.10;7.55;;;;;;;9.19;100.00;99968.16;5068644;28;20029;-46
2023/04/24 00:38:32;;;;;;;22.23;7.38;;;;;;;9.19;100.00;99967.31;5066434;28;20398;-43
2023/04/24 00:40:57;;;;;;;27.15;5.53;;;;;;;9.14;100.00;99970.59;5049015;28;20453;-45
2023/04/24 00:43:23;;;;;;;19.30;6.18;;;;;;;9.09;100.00;99966.81;5062773;28;20041;-47
2023/04/24 00:45:48;;;;;;;18.83;5.97;;;;;;;9.12;100.00;99958.38;5056307;28;20036;-42
2023/04/24 00:48:14;;;;;;;16.85;6.03;;;;;;;9.12;100.00;99961.91;5069477;28;20033;-46
2023/04/24 00:50:40;;;;;;;14.90;5.53;;;;;;;9.09;100.00;99961.47;5065299;28;20072;-46
2023/04/24 00:53:05;;;;;;;22.02;5.55;;;;;;;9.12;100.00;99953.84;5050566;28;20036;-44
2023/04/24 00:55:32;;;;;;;27.40;5.93;;;;;;;9.13;100.00;99962.72;5050542;28;20078;-46
2023/04/24 00:57:57;;;;;;;29.27;5.75;;;;;;;9.14;100.00;99957.16;5049687;28;20021;-43
2023/04/24 01:00:23;;;;;;;24.77;5.70;;;;;;;9.15;100.00;99968.72;5050379;28;20094;-44
2023/04/24 01:02:49;;;;;;;20.30;5.78;;;;;;;9.13;100.00;99960.84;5037253;28;20029;-46
2023/04/24 01:05:15;;;;;;;12.07;5.30;;;;;;;9.16;100.00;99965.00;5056409;28;20041;-42
2023/04/24 01:07:43;;;;;;;21.90;6.80;;;;;;;9.12;100.00;99963.75;5049386;28;20025;-41
2023/04/24 01:10:09;;;;;;;23.65;5.80;;;;;;;9.10;100.00;99963.09;5056260;28;20040;-45
2023/04/24 01:12:35;;;;;;;9.48;3.65;;;;;;;9.05;100.00;99957.50;5048213;28;20043;-46
2023/04/24 01:15:00;;;;;;;15.80;3.90;;;;;;;9.08;100.00;99957.91;5050072;28;20025;-47
2023/04/24 01:17:26;;;;;;;9.77;3.15;;;;;;;9.10;100.00;99961.25;5049149;28;20029;-47
2023/04/24 01:19:53;;;;;;;15.02;4.22;;;;;;;9.10;100.00;99963.09;5048687;28;20035;-48
2023/04/24 01:22:20;;;;;;;17.15;4.13;;;;;;;9.11;100.00;99967.44;5048850;28;20025;-47
2023/04/24 01:24:46;;;;;;;17.95;4.43;;;;;;;9.12;100.00;99963.75;5049703;28;20033;-41
2023/04/24 01:27:12;;;;;;;19.83;6.47;;;;;;;9.12;100.00;99966.44;5068767;28;20101;-44
2023/04/24 01:29:37;;;;;;;16.10;5.20;;;;;;;9.10;100.00;99963.09;5053498;28;20473;-43
2023/04/24 01:32:03;;;;;;;16.02;4.68;;;;;;;9.08;100.00;99967.84;5049087;28;20033;-41
2023/04/24 01:34:29;;;;;;;16.85;5.28;;;;;;;9.09;100.00;99966.81;5061862;28;20033;-43
2023/04/24 01:36:55;;;;;;;17.83;5.35;;;;;;;9.06;100.00;99961.81;5052151;28;20079;-44
2023/04/24 01:39:23;;;;;;;40.33;6.05;;;;;;;9.07;100.00;99966.19;5050075;28;20043;-44
2023/04/24 01:41:49;;;;;;;14.77;5.23;;;;;;;9.06;100.00;99962.69;5048657;28;20074;-45
2023/04/24 01:44:15;;;;;;;28.67;6.15;;;;;;;9.05;100.00;99960.16;5049210;28;20087;-44
2023/04/24 01:46:41;;;;;;;20.73;5.70;;;;;;;9.05;100.00;99963.69;5064240;28;20114;-48
2023/04/24 01:49:07;;;;;;;21.58;6.07;;;;;;;9.04;100.00;99959.34;5055144;28;20033;-46
2023/04/24 01:51:33;;;;;;;15.85;6.03;;;;;;;9.01;100.00;99963.25;5049615;28;20423;-44
2023/04/24 01:53:58;;;;;;;21.65;5.50;;;;;;;8.97;100.00;99958.44;5048772;28;20065;-46
2023/04/24 01:56:24;;;;;;;21.98;5.00;;;;;;;8.95;100.00;99952.44;5049659;28;20211;-47
2023/04/24 01:58:50;;;;;;;25.10;6.35;;;;;;;8.96;100.00;99954.94;5064549;28;20494;-47
2023/04/24 02:01:20;;;;;;;23.52;5.65;;;;;;;8.98;100.00;99958.28;5052035;28;20033;-46
2023/04/24 02:03:45;;;;;;;13.82;4.80;;;;;;;8.95;100.00;99953.28;5049895;28;20160;-44
2023/04/24 02:06:11;;;;;;;19.45;5.10;;;;;;;8.91;100.00;99951.19;5048925;28;20188;-44
2023/04/24 02:08:36;;;;;;;14.55;4.40;;;;;;;8.89;100.00;99946.00;5057628;28;20029;-45
2023/04/24 02:11:02;;;;;;;12.90;3.72;;;;;;;8.85;100.00;99949.28;5058369;28;20032;-45
2023/04/24 02:13:27;;;;;;;16.20;4.20;;;;;;;8.86;100.00;99951.75;5060925;28;20462;-43
2023/04/24 02:15:53;;;;;;;27.38;4.50;;;;;;;8.85;100.00;99951.97;5049494;28;20033;-45
2023/04/24 02:18:18;;;;;;;23.65;4.30;;;;;;;8.86;100.00;99949.06;5063394;28;20032;-46
2023/04/24 02:20:44;;;;;;;13.80;3.25;;;;;;;8.78;100.00;99944.66;5032533;28;20041;-45
2023/04/24 02:23:09;;;;;;;13.00;3.83;;;;;;;8.81;100.00;99943.44;5065835;28;20036;-45
2023/04/24 02:25:36;;;;;;;8.00;3.05;;;;;;;8.78;100.00;99951.88;5066759;28;20032;-45
2023/04/24 02:28:02;;;;;;;21.38;2.83;;;;;;;8.73;100.00;99954.31;5058959;28;20029;-45
2023/04/24 02:30:27;;;;;;;21.52;2.90;;;;;;;8.67;100.00;99955.91;5060922;28;20044;-43
2023/04/24 02:32:53;;;;;;;16.60;2.92;;;;;;;8.69;100.00;99947.66;5072880;28;20033;-44
2023/04/24 02:35:19;;;;;;;23.02;3.13;;;;;;;8.68;100.00;99952.19;5061563;28;20215;-42
2023/04/24 02:37:44;;;;;;;16.00;3.10;;;;;;;8.68;100.00;99951.38;5052243;28;20033;-43
2023/04/24 02:40:10;;;;;;;27.48;3.00;;;;;;;8.64;100.00;99960.84;5052013;28;20025;-42
2023/04/24 02:42:35;;;;;;;25.35;3.30;;;;;;;8.66;100.00;99958.78;5052801;28;20029;-41
2023/04/24 02:45:01;;;;;;;7.32;2.88;;;;;;;8.67;100.00;99961.28;5056336;28;20498;-47
2023/04/24 02:47:26;;;;;;;21.05;3.42;;;;;;;8.68;100.00;99962.94;5071742;28;20359;-44
2023/04/24 02:49:51;;;;;;;19.98;3.05;;;;;;;8.65;100.00;99957.13;5054470;28;20012;-42
2023/04/24 02:52:17;;;;;;;19.95;2.60;;;;;;;8.62;100.00;99963.69;5060864;28;20341;-44
2023/04/24 02:54:43;;;;;;;18.65;2.40;;;;;;;8.64;100.00;99956.31;5052466;28;20115;-44
2023/04/24 02:57:08;;;;;;;13.93;2.20;;;;;;;8.63;100.00;99961.84;5069561;28;20031;-43
2023/04/24 02:59:33;;;;;;;23.20;2.97;;;;;;;8.64;100.00;99971.56;5066862;28;20020;-44
2023/04/24 03:01:59;;;;;;;13.52;3.17;;;;;;;8.64;100.00;99955.47;5065206;28;20471;-46
2023/04/24 03:04:25;;;;;;;23.63;3.20;;;;;;;8.66;100.00;99961.47;5052248;28;20032;-44
2023/04/24 03:06:52;;;;;;;21.20;2.80;;;;;;;8.61;100.00;99961.19;5054819;28;20036;-44
2023/04/24 03:09:19;;;;;;;18.23;2.20;;;;;;;8.64;100.00;99960.84;5050960;28;20032;-45
2023/04/24 03:11:44;;;;;;;19.48;2.47;;;;;;;8.67;100.00;99965.81;5054177;28;20033;-47
2023/04/24 03:14:09;;;;;;;12.55;3.30;;;;;;;8.68;100.00;99968.28;5053043;28;20032;-44
2023/04/24 03:16:35;;;;;;;19.58;3.03;;;;;;;8.67;100.00;99961.28;5070405;28;20028;-45
2023/04/24 03:19:00;;;;;;;18.77;2.35;;;;;;;8.68;100.00;99964.78;5067669;28;20081;-44
2023/04/24 03:21:26;;;;;;;14.85;2.60;;;;;;;8.69;100.00;99963.75;5052386;28;20025;-45
2023/04/24 03:23:51;;;;;;;26.90;2.83;;;;;;;8.72;100.00;99966.09;5056409;28;20025;-46
2023/04/24 03:26:17;;;;;;;14.25;2.53;;;;;;;8.73;100.00;99965.03;5058839;28;20123;-47
2023/04/24 03:28:42;;;;;;;12.10;2.55;;;;;;;8.73;100.00;99967.72;5053680;28;20025;-46
2023/04/24 03:31:08;;;;;;;19.90;3.03;;;;;;;8.75;100.00;99963.00;5069473;28;20076;-47
2023/04/24 03:33:33;;;;;;;13.60;2.35;;;;;;;8.75;100.00;99971.88;5057945;28;20032;-47
2023/04/24 03:35:58;;;;;;;15.43;2.60;;;;;;;8.75;100.00;99969.19;5066879;28;20031;-43
2023/04/24 03:38:24;;;;;;;12.05;2.60;;;;;;;8.76;100.00;99970.03;5061136;28;20043;-44
2023/04/24 03:40:49;;;;;;;10.38;2.22;;;;;;;8.74;100.00;99972.91;5052468;28;20025;-43
2023/04/24 03:43:15;;;;;;;20.92;2.78;;;;;;;8.71;100.00;99967.91;5037937;28;20083;-42
2023/04/24 03:45:40;;;;;;;16.42;3.17;;;;;;;8.73;100.00;99970.41;5059750;28;20404;-43
2023/04/24 03:48:06;;;;;;;19.70;3.20;;;;;;;8.75;100.00;99981.78;5049709;28;20056;-48
2023/04/24 03:50:31;;;;;;;13.50;3.10;;;;;;;8.77;100.00;99982.44;5051073;28;20124;-44
2023/04/24 03:52:57;;;;;;;26.77;3.58;;;;;;;8.79;100.00;99980.38;5051835;28;20033;-44
2023/04/24 03:55:23;;;;;;;20.42;3.70;;;;;;;8.78;100.00;99984.09;5050809;28;20067;-44
2023/04/24 03:57:48;;;;;;;11.00;3.42;;;;;;;8.79;100.00;99981.22;5061355;28;20382;-42
2023/04/24 04:00:14;;;;;;;15.93;4.47;;;;;;;8.77;100.00;99987.81;5059834;28;20040;-43
2023/04/24 04:02:39;;;;;;;8.65;2.88;;;;;;;8.78;100.00;99989.44;5053365;28;20642;-42
2023/04/24 04:05:05;;;;;;;11.02;3.05;;;;;;;8.80;100.00;99987.41;5067723;28;20032;-43
2023/04/24 04:07:30;;;;;;;16.10;5.07;;;;;;;8.80;100.00;99995.47;5070004;28;20031;-43
2023/04/24 04:09:55;;;;;;;15.02;4.68;;;;;;;8.81;100.00;99991.75;5061701;28;20497;-42
2023/04/24 04:12:21;;;;;;;29.85;6.18;;;;;;;8.77;100.00;100002.03;5062267;28;20039;-46
2023/04/24 04:14:46;;;;;;;28.27;7.80;;;;;;;8.66;100.00;100009.75;5045518;28;20021;-45
2023/04/24 04:17:11;;;;;;;32.08;7.43;;;;;;;8.68;100.00;100021.94;5058281;28;20020;-47
2023/04/24 04:19:37;;;;;;;32.17;8.75;;;;;;;8.62;100.00;100020.03;5067894;28;20478;-46
2023/04/24 04:22:02;;;;;;;35.03;10.45;;;;;;;8.55;100.00;100022.63;5065768;28;20127;-46
2023/04/24 04:24:28;;;;;;;39.05;10.20;;;;;;;8.52;100.00;100030.22;5069018;28;20021;-46
2023/04/24 04:26:57;;;;;;;55.70;11.30;;;;;;;8.51;100.00;100032.09;5067401;28;20060;-47
2023/04/24 04:29:23;;;;;;;50.00;10.13;;;;;;;8.48;100.00;100048.56;5051156;28;20052;-45
2023/04/24 04:31:49;;;;;;;35.67;8.75;;;;;;;8.50;100.00;100035.75;5065611;28;20185;-47
2023/04/24 04:34:14;;;;;;;33.13;10.18;;;;;;;8.46;100.00;100042.53;5058622;28;20025;-44
2023/04/24 04:36:41;;;;;;;38.15;9.48;;;;;;;8.43;100.00;100045.59;5048293;28;20112;-44
2023/04/24 04:39:07;;;;;;;36.90;11.35;;;;;;;8.42;100.00;100061.88;5057461;28;20516;-43
2023/04/24 04:41:34;;;;;;;49.95;14.13;;;;;;;8.33;100.00;100066.47;5063185;28;20032;-47
2023/04/24 04:44:00;;;;;;;87.53;19.23;;;;;;;8.24;100.00;100070.25;5060095;28;20037;-44
2023/04/24 04:46:26;;;;;;;86.15;24.80;;;;;;;8.18;100.00;100092.44;5058318;28;20025;-47
2023/04/24 04:48:53;;;;;;;93.32;26.30;;;;;;;8.16;100.00;100097.16;5057142;28;20097;-44
2023/04/24 04:51:18;;;;;;;101.35;28.48;;;;;;;8.14;100.00;100092.00;5058015;28;20143;-46
2023/04/24 04:53:43;;;;;;;84.78;26.83;;;;;;;8.05;100.00;100101.94;5059196;28;20111;-45
2023/04/24 04:56:09;;;;;;;106.18;28.50;;;;;;;8.04;100.00;100113.69;5052353;28;20060;-45
2023/04/24 04:58:34;;;;;;;103.60;27.58;;;;;;;7.99;100.00;100115.28;5046830;28;20033;-47
2023/04/24 05:01:00;;;;;;;89.10;26.20;;;;;;;8.01;100.00;100115.94;5048703;28;20300;-45
2023/04/24 05:03:25;;;;;;;78.80;23.33;;;;;;;8.04;100.00;100116.38;5052776;28;20525;-48
2023/04/24 05:05:50;;;;;;;96.82;23.95;;;;;;;8.05;100.00;100127.94;5056931;28;20058;-45
2023/04/24 05:08:16;;;;;;;77.72;22.35;;;;;;;8.03;100.00;100130.81;5056865;28;20502;-46
2023/04/24 05:10:41;;;;;;;92.90;23.60;;;;;;;8.04;100.00;100145.03;5063536;28;20029;-46
2023/04/24 05:13:07;;;;;;;93.90;23.90;;;;;;;8.01;100.00;100154.25;5067990;28;20378;-44
2023/04/24 05:15:32;;;;;;;84.55;23.70;;;;;;;7.99;100.00;100158.13;5070334;28;20038;-44
2023/04/24 05:17:57;;;;;;;98.93;25.30;;;;;;;7.95;100.00;100159.50;5054989;28;20124;-43
2023/04/24 05:20:23;;;;;;;89.22;24.48;;;;;;;7.88;100.00;100164.78;5055765;28;20124;-44
2023/04/24 05:22:48;;;;;;;87.22;23.98;;;;;;;7.88;100.00;100187.03;5056146;28;20028;-45
2023/04/24 05:25:13;;;;;;;83.70;23.27;;;;;;;7.88;100.00;100183.53;5061449;28;20059;-43
2023/04/24 05:27:39;;;;;;;91.65;24.45;;;;;;;7.87;100.00;100184.53;5050157;28;20059;-43
2023/04/24 05:30:05;;;;;;;93.88;24.50;;;;;;;7.88;100.00;100199.59;5057942;28;20029;-43
2023/04/24 05:32:30;;;;;;;76.88;24.20;;;;;;;7.88;100.00;100207.63;5061589;28;20037;-43
2023/04/24 05:34:56;;;;;;;96.32;23.92;;;;;;;7.89;100.00;100211.97;5053957;28;20090;-45
2023/04/24 05:37:22;;;;;;;86.05;24.58;;;;;;;7.93;100.00;100215.97;5057741;28;20402;-45
2023/04/24 05:39:47;;;;;;;97.70;23.17;;;;;;;7.97;100.00;100221.78;5038133;28;20462;-44
2023/04/24 05:42:12;;;;;;;71.93;22.70;;;;;;;7.96;100.00;100226.31;5051399;28;20040;-41
2023/04/24 05:44:38;;;;;;;103.38;25.88;;;;;;;7.96;100.00;100226.31;5043585;28;20036;-42
2023/04/24 05:47:03;;;;;;;82.63;20.77;;;;;;;7.94;100.00;100219.47;5054426;28;20037;-45
2023/04/24 05:49:29;;;;;;;80.53;22.98;;;;;;;7.98;100.00;100236.84;5063133;28;20028;-43
2023/04/24 05:51:54;;;;;;;82.68;19.33;;;;;;;7.97;100.00;100233.34;5064753;28;20044;-47
2023/04/24 05:54:20;;;;;;;107.40;22.02;;;;;;;7.97;100.00;100249.41;5065698;28;20030;-45
2023/04/24 05:56:46;;;;;;;88.30;17.70;;;;;;;8.01;100.00;100248.06;5065818;28;20094;-44
2023/04/24 05:59:11;;;;;;;93.35;19.05;;;;;;;8.02;100.00;100268.47;5065751;28;20044;-47
2023/04/24 06:01:37;;;;;;;100.97;16.42;;;;;;;7.98;100.00;100277.03;5065331;28;20494;-46
2023/04/24 06:04:03;;;;;;;84.30;16.00;;;;;;;7.96;100.00;100287.97;5064287;28;20067;-48
2023/04/24 06:06:28;;;;;;;78.45;14.18;;;;;;;7.98;100.00;100282.41;5066640;28;20028;-44
2023/04/24 06:08:54;;;;;;;84.53;14.25;;;;;;;7.96;100.00;100284.44;5061792;28;20029;-45
2023/04/24 06:11:20;;;;;;;76.40;13.95;;;;;;;7.90;100.00;100296.72;5059388;28;20024;-44
2023/04/24 06:13:45;;;;;;;74.30;14.68;;;;;;;7.94;100.00;100300.69;5066196;28;20032;-44
2023/04/24 06:16:11;;;;;;;67.13;11.15;;;;;;;7.89;100.00;100297.72;5064674;28;20040;-43
2023/04/24 06:18:36;;;;;;;88.70;16.38;;;;;;;7.89;100.00;100303.91;5062177;28;20028;-42
2023/04/24 06:21:02;;;;;;;68.88;14.80;;;;;;;7.95;100.00;100310.38;5063391;28;20115;-42
2023/04/24 06:23:27;;;;;;;77.03;13.75;;;;;;;7.95;100.00;100312.22;5065932;28;20111;-44
2023/04/24 06:25:52;;;;;;;62.00;12.98;;;;;;;7.98;100.00;100315.41;5066992;28;20033;-40
2023/04/24 06:28:18;;;;;;;65.60;12.20;;;;;;;8.01;100.00;100307.00;5065762;28;20037;-41
2023/04/24 06:30:43;;;;;;;59.75;13.07;;;;;;;8.01;100.00;100323.09;5065558;28;20040;-41
2023/04/24 06:33:09;;;;;;;70.00;12.15;;;;;;;8.03;100.00;100333.63;5066631;28;20547;-39
2023/04/24 06:35:35;;;;;;;61.85;10.68;;;;;;;8.04;100.00;100335.31;5065589;28;20402;-39
2023/04/24 06:38:01;;;;;;;70.72;9.95;;;;;;;8.07;100.00;100327.72;5063919;28;20044;-38
2023/04/24 06:40:26;;;;;;;56.10;10.15;;;;;;;8.14;100.00;100339.41;5063504;28;20029;-42
2023/04/24 06:42:51;;;;;;;69.00;9.43;;;;;;;8.15;100.00;100337.56;5067256;28;20052;-39
2023/04/24 06:45:18;;;;;;;56.38;8.73;;;;;;;8.14;100.00;100346.63;5067329;28;20068;-39
2023/04/24 06:47:43;;;;;;;73.72;9.23;;;;;;;8.18;100.00;100352.47;5066081;28;20037;-40
2023/04/24 06:50:09;;;;;;;77.38;9.98;;;;;;;8.17;100.00;100361.53;5063704;28;20076;-39
2023/04/24 06:52:35;;;;;;;51.60;7.40;;;;;;;8.10;100.00;100372.94;5065552;28;20032;-40
2023/04/24 06:55:02;;;;;;;43.67;7.15;;;;;;;8.12;100.00;100372.78;5067553;28;20024;-41
2023/04/24 06:57:27;;;;;;;65.53;8.07;;;;;;;8.06;100.00;100381.53;5065442;28;20028;-43
2023/04/24 06:59:53;;;;;;;92.68;8.43;;;;;;;8.10;100.00;100377.47;5063796;28;20287;-41
2023/04/24 07:02:18;;;;;;;48.00;6.85;;;;;;;8.11;100.00;100374.63;5065597;28;20037;-41
2023/04/24 07:04:43;;;;;;;59.38;6.57;;;;;;;8.11;100.00;100390.69;5066076;28;20101;-40
2023/04/24 07:07:12;;;;;;;68.65;7.05;;;;;;;8.12;100.00;100392.34;5066123;28;20071;-41
2023/04/24 07:09:40;;;;;;;63.22;7.95;;;;;;;8.14;100.00;100390.34;5067824;28;20040;-42
2023/04/24 07:12:07;;;;;;;55.88;6.32;;;;;;;8.22;100.00;100402.03;5070344;28;20035;-39
2023/04/24 07:14:32;;;;;;;62.38;6.30;;;;;;;8.21;100.00;100411.06;5067758;28;20033;-42
2023/04/24 07:16:58;;;;;;;60.90;6.43;;;;;;;8.21;100.00;100411.06;5068359;28;20047;-42
2023/04/24 07:19:23;;;;;;;47.72;5.78;;;;;;;8.23;100.00;100401.84;5068274;28;20113;-40
2023/04/24 07:21:49;;;;;;;53.97;6.00;;;;;;;8.20;100.00;100404.06;5067860;28;20067;-40
2023/04/24 07:24:15;;;;;;;50.22;8.27;;;;;;;8.19;100.00;100405.03;5070158;28;20386;-40
2023/04/24 07:26:40;;;;;;;52.67;6.20;;;;;;;8.24;100.00;100394.63;5069873;28;20044;-44
2023/04/24 07:29:06;;;;;;;48.78;6.03;;;;;;;8.27;100.00;100413.88;5069831;28;20066;-40
2023/04/24 07:31:32;;;;;;;45.08;5.47;;;;;;;8.32;100.00;100418.69;5068761;28;20047;-41
2023/04/24 07:33:58;;;;;;;53.05;5.70;;;;;;;8.33;100.00;100409.66;5068948;28;20561;-42
2023/04/24 07:36:24;;;;;;;57.45;5.68;;;;;;;8.38;100.00;100428.72;5069476;28;20108;-40
2023/04/24 07:38:49;;;;;;;48.95;5.20;;;;;;;8.40;100.00;100421.38;5069092;28;20032;-40
2023/04/24 07:41:15;;;;;;;61.65;6.72;;;;;;;8.42;100.00;100432.75;5068083;28;20390;-41
2023/04/24 07:43:40;;;;;;;42.22;5.30;;;;;;;8.46;100.00;100446.66;5066298;28;20032;-40
2023/04/24 07:46:07;;;;;;;46.38;5.97;;;;;;;8.41;100.00;100438.31;5066262;28;20387;-39
2023/04/24 07:48:32;;;;;;;56.00;6.82;;;;;;;8.44;100.00;100446.81;5065582;28;20043;-39
2023/04/24 07:50:57;;;;;;;65.60;8.07;;;;;;;8.47;100.00;100445.63;5064119;28;20044;-41
2023/04/24 07:53:23;;;;;;;32.90;6.75;;;;;;;8.51;100.00;100453.16;5065994;28;20024;-43
2023/04/24 07:55:48;;;;;;;31.77;5.38;;;;;;;8.48;100.00;100442.78;5067579;28;20032;-43
2023/04/24 07:58:14;;;;;;;44.40;6.28;;;;;;;8.45;100.00;100456.53;5065204;28;20033;-44
2023/04/24 08:00:39;;;;;;;29.27;4.63;;;;;;;8.39;100.00;100456.38;5064140;28;20094;-40
2023/04/24 08:03:04;;;;;;;37.70;4.90;;;;;;;8.37;100.00;100459.22;5065854;28;20494;-40
2023/04/24 08:05:30;;;;;;;36.55;5.85;;;;;;;8.42;100.00;100453.38;5066095;28;20096;-41
2023/04/24 08:07:56;;;;;;;27.27;5.13;;;;;;;8.45;100.00;100464.59;5065460;28;20033;-43
2023/04/24 08:10:25;;;;;;;28.85;4.45;;;;;;;8.46;100.00;100458.22;5064682;28;20028;-40
2023/04/24 08:12:50;;;;;;;32.67;4.07;;;;;;;8.50;100.00;100454.13;5064721;28;20054;-44
2023/04/24 08:15:16;;;;;;;29.77;5.97;;;;;;;8.49;100.00;100459.69;5064620;28;20028;-42
2023/04/24 08:17:41;;;;;;;45.92;5.65;;;;;;;8.57;100.00;100463.16;5065339;28;20078;-42
2023/04/24 08:20:13;;;;;;;15.18;3.90;;;;;;;8.65;100.00;100473.00;5066142;28;20063;-42
2023/04/24 08:22:42;;;;;;;31.85;3.50;;;;;;;8.71;100.00;100466.06;5064382;28;20089;-41
2023/04/24 08:25:09;;;;;;;31.08;4.18;;;;;;;8.72;100.00;100473.97;5063626;28;20576;-41
2023/04/24 08:27:34;;;;;;;35.28;4.70;;;;;;;8.72;100.00;100478.50;5065154;28;20441;-45
2023/04/24 08:29:59;;;;;;;28.98;4.03;;;;;;;8.69;100.00;100493.09;5065618;28;20032;-41
2023/04/24 08:32:28;;;;;;;32.22;3.90;;;;;;;8.60;100.00;100491.47;5064749;28;20405;-42
2023/04/24 08:34:57;;;;;;;39.78;3.47;;;;;;;8.60;100.00;100504.06;5065226;28;20099;-43
2023/04/24 08:37:23;;;;;;;35.08;3.20;;;;;;;8.52;100.00;100511.13;5059759;28;20029;-40
2023/04/24 08:39:49;;;;;;;34.75;3.88;;;;;;;8.57;100.00;100507.91;5045000;28;20025;-40
2023/04/24 08:42:15;;;;;;;21.30;3.65;;;;;;;8.65;100.00;100515.09;5064001;28;20503;-40
2023/04/24 08:44:40;;;;;;;28.83;2.75;;;;;;;8.73;100.00;100518.53;5063599;28;20093;-40
2023/04/24 08:47:07;;;;;;;13.90;2.35;;;;;;;8.70;100.00;100518.06;5062228;28;20028;-40
2023/04/24 08:49:33;;;;;;;18.10;2.25;;;;;;;8.74;100.00;100517.56;5064589;28;20351;-42
2023/04/24 08:51:59;;;;;;;36.17;3.15;;;;;;;8.68;100.00;100509.34;5062279;28;20052;-43
2023/04/24 08:54:25;;;;;;;13.35;1.90;;;;;;;8.62;100.00;100520.81;5065130;28;20027;-41
2023/04/24 08:56:54;;;;;;;19.52;2.42;;;;;;;8.59;100.00;100534.59;5065209;28;20485;-40
2023/04/24 08:59:21;;;;;;;23.33;3.42;;;;;;;8.56;100.00;100543.81;5065429;28;20032;-41
2023/04/24 09:01:48;;;;;;;26.90;2.88;;;;;;;8.53;100.00;100544.16;5063996;28;20055;-39
2023/04/24 09:04:15;;;;;;;24.90;2.30;;;;;;;8.53;100.00;100542.31;5064754;28;20059;-43
2023/04/24 09:06:41;;;;;;;26.05;2.50;;;;;;;8.53;100.00;100547.69;5064847;28;20048;-43
2023/04/24 09:09:08;;;;;;;24.92;2.65;;;;;;;8.65;100.00;100541.91;5063648;28;20040;-40
2023/04/24 09:11:34;;;;;;;27.42;2.35;;;;;;;8.66;100.00;100538.22;5045824;28;20461;-41
2023/04/24 09:14:00;;;;;;;16.83;2.00;;;;;;;8.65;100.00;100544.59;5063916;28;20040;-44
2023/04/24 09:16:26;;;;;;;16.77;2.58;;;;;;;8.62;100.00;100553.84;5046556;28;20186;-43
2023/04/24 09:18:52;;;;;;;14.07;1.88;;;;;;;8.74;100.00;100556.94;5063956;28;20111;-39
2023/04/24 09:21:20;;;;;;;23.40;2.08;;;;;;;9.06;100.00;100549.69;5065786;28;20037;-41
2023/04/24 09:23:45;;;;;;;;;;;;;;;9.48;100.00;100553.69;5065449;28;20119;-42
2023/04/24 09:26:11;;;;;;;18.90;1.83;;;;;;;9.85;100.00;100532.19;5062276;28;20816;-40
2023/04/24 09:28:39;;;;;;;23.23;2.50;;;;;;;9.86;100.00;100543.75;5060878;28;20091;-42
2023/04/24 09:31:12;;;;;;;19.35;2.15;;;;;;;9.96;100.00;100549.69;5060808;28;20503;-39
2023/04/24 09:33:38;;;;;;;21.40;1.95;;;;;;;9.93;100.00;100551.94;5046350;28;20410;-43
2023/04/24 09:36:05;;;;;;;20.50;2.60;;;;;;;9.94;100.00;100548.22;5064077;28;20024;-41
2023/04/24 09:38:32;;;;;;;16.70;2.22;;;;;;;9.80;100.00;100558.78;5064680;28;20024;-44
2023/04/24 09:41:05;;;;;;;27.55;2.45;;;;;;;9.71;100.00;100570.59;5064159;28;20057;-42
2023/04/24 09:43:31;;;;;;;16.58;2.38;;;;;;;9.78;100.00;100565.34;5062252;28;20035;-42
2023/04/24 09:45:59;;;;;;;26.20;1.73;;;;;;;9.55;100.00;100570.78;5063688;28;20048;-42
2023/04/24 09:48:42;;;;;;;21.20;2.50;;;;;;;9.44;100.00;100580.09;5051930;28;20029;-41
2023/04/24 09:51:10;;;;;;;19.73;3.70;;;;;;;9.29;100.00;100593.47;5056116;28;20049;-39
2023/04/24 09:53:35;;;;;;;16.20;2.70;;;;;;;9.19;100.00;100609.84;5049009;28;20102;-43
2023/04/24 09:56:12;;;;;;;30.02;4.18;;;;;;;9.18;100.00;100620.75;5066348;28;20025;-43
2023/04/24 09:58:37;;;;;;;24.45;2.58;;;;;;;9.25;100.00;100624.41;5069137;28;20102;-40
2023/04/24 10:01:03;;;;;;;17.70;4.18;;;;;;;9.33;100.00;100629.72;5070178;28;20468;-42
2023/04/24 10:03:33;;;;;;;22.95;2.25;;;;;;;9.34;100.00;100627.84;5064966;28;20032;-41
2023/04/24 10:06:08;;;;;;;9.93;1.95;;;;;;;9.29;100.00;100622.19;5049285;28;20481;-41
2023/04/24 10:08:34;;;;;;;26.88;3.13;;;;;;;9.21;100.00;100626.59;5048197;28;20379;-43
2023/04/24 10:11:00;;;;;;;24.27;2.58;;;;;;;9.07;100.00;100626.53;5046453;28;20132;-41
2023/04/24 10:13:25;;;;;;;16.83;2.63;;;;;;;8.88;100.00;100627.81;5059524;28;20047;-39
2023/04/24 10:15:51;;;;;;;13.45;1.50;;;;;;;8.77;100.00;100631.75;5061029;28;20086;-47
2023/04/24 10:18:16;;;;;;;16.33;2.10;;;;;;;8.83;100.00;100622.97;5067014;28;20082;-40
2023/04/24 10:20:42;;;;;;;25.35;2.53;;;;;;;9.06;100.00;100630.22;5070583;28;20060;-41
2023/04/24 10:23:07;;;;;;;31.58;2.95;;;;;;;9.28;100.00;100621.34;5067306;28;20405;-41
2023/04/24 10:25:34;;;;;;;20.42;2.13;;;;;;;9.53;100.00;100621.16;5066694;28;20482;-42
2023/04/24 10:28:01;;;;;;;26.10;2.95;;;;;;;9.81;100.00;100624.94;5067561;28;20035;-41
2023/04/24 10:30:29;;;;;;;29.52;2.50;;;;;;;10.15;100.00;100631.66;5068549;28;20044;-40
2023/04/24 10:32:55;;;;;;;20.33;2.15;;;;;;;10.47;100.00;100613.50;5068810;28;20482;-42
2023/04/24 10:35:23;;;;;;;15.93;2.30;;;;;;;10.91;100.00;100615.31;5048853;28;20037;-42
2023/04/24 10:38:02;;;;;;;19.65;1.85;;;;;;;11.15;100.00;100625.72;5050738;28;20037;-40
2023/04/24 10:40:33;;;;;;;13.32;1.80;;;;;;;10.85;100.00;100613.34;5061910;28;20056;-39
2023/04/24 10:42:59;;;;;;;22.25;1.92;;;;;;;10.72;100.00;100643.66;5041338;28;20029;-40
2023/04/24 10:45:25;;;;;;;21.75;2.95;;;;;;;10.60;100.00;100650.53;5062908;28;20024;-41
2023/04/24 10:48:02;;;;;;;13.57;1.88;;;;;;;10.52;100.00;100646.91;5057817;28;20386;-41
2023/04/24 10:50:41;;;;;;;25.92;1.85;;;;;;;10.32;100.00;100649.34;5053049;28;20087;-41
2023/04/24 10:53:14;;;;;;;10.48;1.30;;;;;;;10.38;100.00;100657.69;5057760;28;20021;-43
2023/04/24 10:55:50;;;;;;;12.75;1.23;;;;;;;10.52;100.00;100654.16;5064179;28;20054;-42
2023/04/24 10:58:16;;;;;;;8.45;1.10;;;;;;;10.63;100.00;100648.28;5070793;28;20415;-41
2023/04/24 11:00:43;;;;;;;13.23;1.73;;;;;;;10.99;100.00;100653.72;5071046;28;20444;-42
2023/04/24 11:03:33;;;;;;;10.87;1.80;;;;;;;11.47;100.00;100657.75;5070809;28;20020;-44
2023/04/24 11:06:01;;;;;;;18.30;1.80;;;;;;;11.85;100.00;100653.75;5058737;28;20517;-42
2023/04/24 11:08:30;;;;;;;10.55;1.80;;;;;;;12.35;100.00;100660.97;5062123;28;20025;-39
2023/04/24 11:11:25;;;;;;;16.83;1.48;;;;;;;12.83;100.00;100659.16;5058734;28;20119;-42
2023/04/24 11:13:56;;;;;;;17.15;2.03;;;;;;;13.11;100.00;100671.72;5051545;28;20479;-40
2023/04/24 11:16:35;;;;;;;19.38;2.17;;;;;;;13.34;100.00;100672.25;5069046;28;20119;-39